createdAt,value
2023-03-12T00:01:19.458Z,3.45
2023-03-12T00:05:12.420Z,3.60
2023-03-12T00:09:05.222Z,3.83
2023-03-12T00:12:58.620Z,3.40
2023-03-12T00:16:51.517Z,3.85
2023-03-12T00:20:44.066Z,2.90
2023-03-12T00:24:36.914Z,3.38
2023-03-12T00:32:50.654Z,2.75
2023-03-12T00:36:43.508Z,2.67
2023-03-12T00:40:36.601Z,3.35
2023-03-12T00:44:29.273Z,2.72
2023-03-12T00:48:22.029Z,2.92
2023-03-12T00:52:14.796Z,3.13
2023-03-12T00:56:08.115Z,3.20
2023-03-12T01:00:01.231Z,3.17
2023-03-12T01:03:55.840Z,3.75
2023-03-12T01:07:48.574Z,3.80
2023-03-12T01:11:41.331Z,3.08
2023-03-12T01:15:34.145Z,3.67
2023-03-12T01:19:27.185Z,3.50
2023-03-12T01:23:19.958Z,3.38
2023-03-12T01:27:12.691Z,3.53
2023-03-12T01:31:10.721Z,4.10
2023-03-12T01:35:03.665Z,3.67
2023-03-12T01:38:59.100Z,3.90
2023-03-12T01:42:56.825Z,4.13
2023-03-12T01:46:49.755Z,4.45
2023-03-12T01:50:42.824Z,4.50
2023-03-12T01:54:44.869Z,4.15
2023-03-12T01:58:40.610Z,4.57
2023-03-12T02:02:35.656Z,4.65
2023-03-12T02:06:58.929Z,4.85
2023-03-12T02:10:51.839Z,5.10
2023-03-12T02:14:44.819Z,5.40
2023-03-12T02:18:37.814Z,5.47
2023-03-12T02:22:30.814Z,5.13
2023-03-12T02:26:26.510Z,5.60
2023-03-12T02:30:20.194Z,6.00
2023-03-12T02:34:13.058Z,6.00
2023-03-12T02:38:37.211Z,5.63
2023-03-12T02:42:29.697Z,5.57
2023-03-12T02:46:22.654Z,5.75
2023-03-12T02:50:15.627Z,6.10
2023-03-12T02:54:09.207Z,5.47
2023-03-12T02:58:02.014Z,5.38
2023-03-12T03:01:57.296Z,6.18
2023-03-12T03:05:50.209Z,5.72
2023-03-12T03:09:42.925Z,5.50
2023-03-12T03:13:35.738Z,5.70
2023-03-12T03:17:28.882Z,5.43
2023-03-12T03:21:22.942Z,5.55
2023-03-12T03:25:15.991Z,5.75
2023-03-12T03:29:08.726Z,6.50
2023-03-12T03:33:02.769Z,6.15
2023-03-12T03:36:55.549Z,6.28
2023-03-12T03:40:48.193Z,6.25
2023-03-12T03:44:41.054Z,5.95
2023-03-12T03:48:34.156Z,6.28
2023-03-12T03:52:26.836Z,6.30
2023-03-12T03:56:19.699Z,6.40
2023-03-12T04:00:13.260Z,6.00
2023-03-12T04:04:06.641Z,6.68
2023-03-12T04:08:03.335Z,5.75
2023-03-12T04:11:56.501Z,6.25
2023-03-12T04:15:54.059Z,5.97
2023-03-12T04:23:40.255Z,5.95
2023-03-12T04:27:33.094Z,6.55
2023-03-12T04:31:26.027Z,5.80
2023-03-12T04:35:18.731Z,5.95
2023-03-12T04:39:11.509Z,6.32
2023-03-12T04:43:04.049Z,6.13
2023-03-12T04:46:56.960Z,6.03
2023-03-12T04:50:50.117Z,6.53
2023-03-12T04:54:42.778Z,6.78
2023-03-12T04:58:36.185Z,6.47
2023-03-12T05:02:29.253Z,5.95
2023-03-12T05:06:23.518Z,6.78
2023-03-12T05:10:16.327Z,6.90
2023-03-12T05:14:11.854Z,6.50
2023-03-12T05:18:04.656Z,6.50
2023-03-12T05:21:57.369Z,6.00
2023-03-12T05:25:50.058Z,6.95
2023-03-12T05:29:42.888Z,6.95
2023-03-12T05:33:36.376Z,6.65
2023-03-12T05:37:28.980Z,7.35
2023-03-12T05:41:24.622Z,7.18
2023-03-12T05:45:17.501Z,8.02
2023-03-12T05:49:11.163Z,7.90
2023-03-12T05:53:04.148Z,7.53
2023-03-12T05:56:56.836Z,7.13
2023-03-12T06:00:49.614Z,6.97
2023-03-12T06:04:42.557Z,6.50
2023-03-12T06:26:17.419Z,7.53
2023-03-12T06:34:38.735Z,7.57
2023-03-12T07:01:23.056Z,7.32
2023-03-12T07:05:16.252Z,8.27
2023-03-12T07:09:09.224Z,7.65
2023-03-12T07:13:02.180Z,6.65
2023-03-12T07:16:56.238Z,6.05
2023-03-12T07:20:49.045Z,6.95
2023-03-12T07:24:41.728Z,6.43
2023-03-12T07:28:34.589Z,5.85
2023-03-12T07:32:27.793Z,6.22
2023-03-12T07:36:20.411Z,5.97
2023-03-12T07:40:16.615Z,6.90
2023-03-12T07:44:09.976Z,6.30
2023-03-12T07:48:02.802Z,6.07
2023-03-12T07:51:55.886Z,6.35
2023-03-12T07:55:48.959Z,7.32
2023-03-12T07:59:41.917Z,6.90
2023-03-12T08:03:36.350Z,5.60
2023-03-12T08:07:32.494Z,8.55
2023-03-12T08:11:25.674Z,7.50
2023-03-12T08:15:18.785Z,6.40
2023-03-12T08:19:11.933Z,7.65
2023-03-12T08:23:04.669Z,7.63
2023-03-12T08:26:57.403Z,8.48
2023-03-12T08:30:55.336Z,8.10
2023-03-12T08:34:48.184Z,14.18
2023-03-12T08:38:41.054Z,7.38
2023-03-12T08:42:34.382Z,8.93
2023-03-12T08:46:27.383Z,6.13
2023-03-12T08:50:22.361Z,11.32
2023-03-12T08:54:15.240Z,5.57
2023-03-12T08:58:07.776Z,5.85
2023-03-12T09:02:01.631Z,5.22
2023-03-12T09:06:06.797Z,4.60
2023-03-12T09:09:59.850Z,5.70
2023-03-12T09:14:26.632Z,4.70
2023-03-12T09:18:05.508Z,4.10
2023-03-12T09:21:58.393Z,4.05
2023-03-12T09:25:51.651Z,4.32
2023-03-12T09:29:58.625Z,4.15
2023-03-12T09:33:52.892Z,4.43
2023-03-12T09:37:49.143Z,4.20
2023-03-12T09:41:44.677Z,3.63
2023-03-12T09:45:43.433Z,3.33
2023-03-12T09:49:44.762Z,3.70
2023-03-12T09:53:54.384Z,4.05
2023-03-12T09:57:49.453Z,4.38
2023-03-12T10:02:05.098Z,4.68
2023-03-12T10:06:22.383Z,3.95
2023-03-12T10:11:04.368Z,3.53
2023-03-12T10:15:12.836Z,3.13
2023-03-12T10:19:17.830Z,3.70
2023-03-12T10:23:20.887Z,3.80
2023-03-12T10:27:16.302Z,3.60
2023-03-12T10:31:20.270Z,3.38
2023-03-12T10:35:23.939Z,4.05
2023-03-12T10:39:20.749Z,3.67
2023-03-12T10:43:22.713Z,3.60
2023-03-12T10:47:26.895Z,2.70
2023-03-12T10:51:19.829Z,2.75
2023-03-12T10:55:29.788Z,3.00
2023-03-12T10:59:26.998Z,2.70
2023-03-12T11:03:21.838Z,2.67
2023-03-12T11:07:20.982Z,2.70
2023-03-12T11:11:30.362Z,3.40
2023-03-12T11:15:29.664Z,3.22
2023-03-12T11:19:32.340Z,3.35
2023-03-12T11:23:29.145Z,4.03
2023-03-12T11:27:44.606Z,4.40
2023-03-12T11:31:45.189Z,4.20
2023-03-12T11:36:18.974Z,3.67
2023-03-12T11:40:30.439Z,3.20
2023-03-12T11:44:32.894Z,3.40
2023-03-12T11:48:48.688Z,3.42
2023-03-12T11:52:59.977Z,3.40
2023-03-12T11:56:57.164Z,2.92
2023-03-12T12:00:55.050Z,3.67
2023-03-12T12:05:25.672Z,3.60
2023-03-12T12:09:43.336Z,3.20
2023-03-12T12:14:11.967Z,2.88
2023-03-12T12:22:40.284Z,2.83
2023-03-12T12:26:47.368Z,2.97
2023-03-12T12:31:15.244Z,5.85
2023-03-12T12:35:20.150Z,2.73
2023-03-12T12:39:24.483Z,2.40
2023-03-12T12:43:24.106Z,2.53
2023-03-12T12:47:20.541Z,2.40
2023-03-12T12:51:14.541Z,3.20
2023-03-12T12:55:39.213Z,2.60
2023-03-12T12:59:38.612Z,2.53
2023-03-12T13:03:31.883Z,2.63
2023-03-12T13:07:27.621Z,2.88
2023-03-12T13:11:30.575Z,3.08
2023-03-12T13:15:29.675Z,3.15
2023-03-12T13:19:28.008Z,2.40
2023-03-12T13:23:32.798Z,2.72
2023-03-12T13:27:39.259Z,19.75
2023-03-12T13:31:37.284Z,9.90
2023-03-12T13:39:36.750Z,2.55
2023-03-12T13:43:47.980Z,3.28
2023-03-12T13:47:43.812Z,6.35
2023-03-12T13:51:55.862Z,2.75
2023-03-12T13:56:00.844Z,1.95
2023-03-12T13:59:54.103Z,2.30
2023-03-12T14:03:52.589Z,3.25
2023-03-12T14:08:11.206Z,3.13
2023-03-12T14:12:13.703Z,4.97
2023-03-12T14:16:11.511Z,3.10
2023-03-12T14:20:22.089Z,3.72
2023-03-12T14:24:44.571Z,3.00
2023-03-12T14:28:42.808Z,5.93
2023-03-12T14:32:36.959Z,4.57
2023-03-12T14:36:57.066Z,2.65
2023-03-12T14:41:06.594Z,3.33
2023-03-12T14:45:11.364Z,3.05
2023-03-12T14:49:04.442Z,3.50
2023-03-12T14:53:21.595Z,3.25
2023-03-12T14:57:21.476Z,3.30
2023-03-12T15:01:40.692Z,3.40
2023-03-12T15:05:34.748Z,3.03
2023-03-12T15:09:31.055Z,3.03
2023-03-12T15:13:26.637Z,3.13
2023-03-12T15:17:21.095Z,4.00
2023-03-12T15:21:14.753Z,3.17
2023-03-12T15:25:28.395Z,2.60
2023-03-12T15:29:29.186Z,2.80
2023-03-12T15:33:27.028Z,7.07
2023-03-12T15:37:29.226Z,11.15
2023-03-12T15:41:28.120Z,2.90
2023-03-12T15:45:35.030Z,3.25
2023-03-12T15:49:32.270Z,2.35
2023-03-12T15:53:26.932Z,2.08
2023-03-12T15:57:23.473Z,2.30
2023-03-12T16:01:24.934Z,2.50
2023-03-12T16:05:22.507Z,2.50
2023-03-12T16:13:17.556Z,2.35
2023-03-12T16:17:18.288Z,2.55
2023-03-12T16:21:12.220Z,4.28
2023-03-12T16:25:09.610Z,4.85
2023-03-12T16:29:05.459Z,3.50
2023-03-12T16:33:01.201Z,4.30
2023-03-12T16:36:55.119Z,3.83
2023-03-12T16:40:52.654Z,6.53
2023-03-12T16:48:40.180Z,12.68
2023-03-12T16:52:36.949Z,12.30
2023-03-12T16:56:31.084Z,12.50
2023-03-12T17:00:27.584Z,9.48
2023-03-12T17:04:23.701Z,7.73
2023-03-12T17:08:17.445Z,6.32
2023-03-12T17:12:29.454Z,7.45
2023-03-12T17:16:23.472Z,8.15
2023-03-12T17:20:18.748Z,8.68
2023-03-12T17:24:14.290Z,9.57
2023-03-12T17:28:09.100Z,9.18
2023-03-12T17:32:02.730Z,6.85
2023-03-12T17:36:05.869Z,5.35
2023-03-12T17:40:01.844Z,5.00
2023-03-12T17:43:58.631Z,6.45
2023-03-12T17:47:52.267Z,6.80
2023-03-12T17:51:46.176Z,7.32
2023-03-12T17:55:39.548Z,15.60
2023-03-12T17:59:36.628Z,12.35
2023-03-12T18:03:30.590Z,7.85
2023-03-12T18:07:23.719Z,7.25
2023-03-12T18:11:17.818Z,6.70
2023-03-12T18:15:13.816Z,5.93
2023-03-12T18:19:08.758Z,6.88
2023-03-12T18:23:02.969Z,12.65
2023-03-12T18:27:01.178Z,18.65
2023-03-12T18:30:56.247Z,9.20
2023-03-12T18:34:50.825Z,7.13
2023-03-12T18:38:44.636Z,5.15
2023-03-12T18:42:40.442Z,5.60
2023-03-12T18:46:34.305Z,6.50
2023-03-12T18:50:28.274Z,6.13
2023-03-12T18:54:24.712Z,5.65
2023-03-12T18:58:18.685Z,4.68
2023-03-12T19:02:12.324Z,10.77
2023-03-12T19:06:12.125Z,6.60
2023-03-12T19:10:08.351Z,6.75
2023-03-12T19:14:03.675Z,6.72
2023-03-12T19:17:59.119Z,7.60
2023-03-12T19:21:54.645Z,9.45
2023-03-12T19:25:47.612Z,9.88
2023-03-12T19:29:44.414Z,10.32
2023-03-12T19:33:38.566Z,8.70
2023-03-12T19:37:32.451Z,8.95
2023-03-12T19:41:28.284Z,10.30
2023-03-12T19:45:22.207Z,9.80
2023-03-12T19:49:15.219Z,10.05
2023-03-12T19:53:08.862Z,10.13
2023-03-12T19:57:03.020Z,10.20
2023-03-12T20:01:00.405Z,11.02
2023-03-12T20:04:54.017Z,10.38
2023-03-12T20:08:50.052Z,10.80
2023-03-12T20:12:43.869Z,10.57
2023-03-12T20:16:42.419Z,9.38
2023-03-12T20:20:36.648Z,6.60
2023-03-12T20:24:35.425Z,4.78
2023-03-12T20:28:30.775Z,5.07
2023-03-12T20:32:26.244Z,5.93
2023-03-12T20:36:19.743Z,5.20
2023-03-12T20:40:13.911Z,5.30
2023-03-12T20:44:07.690Z,5.55
2023-03-12T20:48:01.417Z,6.70
2023-03-12T20:52:01.432Z,6.75
2023-03-12T20:55:55.352Z,6.45
2023-03-12T20:59:48.818Z,6.88
2023-03-12T21:03:42.039Z,7.82
2023-03-12T21:07:35.853Z,6.82
2023-03-12T21:11:29.848Z,6.07
2023-03-12T21:15:22.966Z,5.47
2023-03-12T21:19:16.694Z,6.60
2023-03-12T21:23:10.740Z,6.80
2023-03-12T21:27:03.747Z,5.28
2023-03-12T21:30:56.840Z,5.43
2023-03-12T21:34:50.746Z,5.53
2023-03-12T21:38:44.029Z,5.82
2023-03-12T21:42:37.088Z,4.78
2023-03-12T21:46:30.741Z,5.00
2023-03-12T21:50:23.488Z,5.43
2023-03-12T21:54:16.272Z,5.00
2023-03-12T21:58:08.612Z,5.82
2023-03-12T22:02:02.356Z,6.05
2023-03-12T22:05:55.507Z,5.72
2023-03-12T22:09:48.545Z,5.65
2023-03-12T22:13:41.218Z,5.85
2023-03-12T22:17:34.072Z,6.20
2023-03-12T22:21:28.940Z,5.53
2023-03-12T22:25:21.829Z,6.07
2023-03-12T22:29:14.591Z,5.80
2023-03-12T22:33:07.374Z,6.50
2023-03-12T22:37:00.098Z,6.60
2023-03-12T22:40:55.468Z,7.10
2023-03-12T22:44:48.514Z,6.72
2023-03-12T22:48:41.179Z,5.88
2023-03-12T22:52:35.229Z,5.95
2023-03-12T22:56:28.840Z,6.65
2023-03-12T23:00:26.671Z,6.70
2023-03-12T23:04:20.104Z,5.60
2023-03-12T23:08:12.876Z,6.35
2023-03-12T23:12:05.926Z,6.00
2023-03-12T23:16:06.639Z,5.97
2023-03-12T23:19:59.412Z,5.32
2023-03-12T23:23:52.671Z,5.90
2023-03-12T23:27:45.443Z,5.97
2023-03-12T23:31:38.748Z,5.95
2023-03-12T23:35:31.339Z,6.07
2023-03-12T23:39:24.768Z,6.30
2023-03-12T23:43:17.538Z,7.18
2023-03-12T23:47:10.444Z,6.90
2023-03-12T23:51:10.832Z,6.10
2023-03-12T23:55:03.582Z,6.50
2023-03-12T23:58:56.500Z,6.32
